createdAt,value
2022-10-10T00:02:09.251Z,1.17
2022-10-10T00:04:38.701Z,1.10
2022-10-10T00:07:06.885Z,1.05
2022-10-10T00:09:34.964Z,1.48
2022-10-10T00:12:02.987Z,1.25
2022-10-10T00:14:32.596Z,1.00
2022-10-10T00:17:00.720Z,1.17
2022-10-10T00:19:28.793Z,1.20
2022-10-10T00:21:58.578Z,1.27
2022-10-10T00:24:26.569Z,1.33
2022-10-10T00:26:54.847Z,1.17
2022-10-10T00:29:22.832Z,1.20
2022-10-10T00:31:50.865Z,1.52
2022-10-10T00:34:19.275Z,1.20
2022-10-10T00:36:47.270Z,1.50
2022-10-10T00:39:16.663Z,1.60
2022-10-10T00:41:44.636Z,1.92
2022-10-10T00:44:14.759Z,1.95
2022-10-10T00:46:43.717Z,1.63
2022-10-10T00:49:15.803Z,1.55
2022-10-10T00:51:47.311Z,1.65
2022-10-10T00:54:19.355Z,1.23
2022-10-10T00:56:55.943Z,2.00
2022-10-10T00:59:24.849Z,2.15
2022-10-10T01:01:52.928Z,1.60
2022-10-10T01:04:34.126Z,1.92
2022-10-10T01:07:04.257Z,1.70
2022-10-10T01:09:35.092Z,2.30
2022-10-10T01:12:12.730Z,1.83
2022-10-10T01:14:49.057Z,1.98
2022-10-10T01:17:24.417Z,2.47
2022-10-10T01:20:24.876Z,2.60
2022-10-10T01:23:13.887Z,2.17
2022-10-10T01:25:58.817Z,1.80
2022-10-10T01:28:37.512Z,2.22
2022-10-10T01:31:09.948Z,2.30
2022-10-10T01:33:43.452Z,2.28
2022-10-10T01:36:22.479Z,2.67
2022-10-10T01:38:57.257Z,1.90
2022-10-10T01:41:29.801Z,1.73
2022-10-10T01:43:59.894Z,1.85
2022-10-10T01:46:28.280Z,2.38
2022-10-10T01:48:58.718Z,2.40
2022-10-10T01:51:40.001Z,1.63
2022-10-10T01:54:19.889Z,1.90
2022-10-10T01:56:59.375Z,1.95
2022-10-10T01:59:40.327Z,1.33
2022-10-10T02:02:16.378Z,2.20
2022-10-10T02:04:50.696Z,1.45
2022-10-10T02:07:25.034Z,2.00
2022-10-10T02:09:55.353Z,2.00
2022-10-10T02:12:24.756Z,1.80
2022-10-10T02:14:57.433Z,1.67
2022-10-10T02:17:27.183Z,1.65
2022-10-10T02:19:59.578Z,2.38
2022-10-10T02:22:29.667Z,2.00
2022-10-10T02:24:57.892Z,2.10
2022-10-10T02:27:31.378Z,2.30
2022-10-10T02:30:03.937Z,1.80
2022-10-10T02:32:35.711Z,2.00
2022-10-10T02:35:09.737Z,2.55
2022-10-10T02:37:40.099Z,2.20
2022-10-10T02:40:10.499Z,2.20
2022-10-10T02:42:39.743Z,1.92
2022-10-10T02:45:10.134Z,1.92
2022-10-10T02:47:38.230Z,2.17
2022-10-10T02:50:07.493Z,2.10
2022-10-10T02:52:35.484Z,1.98
2022-10-10T02:55:03.506Z,2.10
2022-10-10T02:57:31.924Z,2.40
2022-10-10T03:00:00.251Z,2.83
2022-10-10T03:02:29.915Z,2.47
2022-10-10T03:04:58.242Z,2.05
2022-10-10T03:07:26.742Z,2.15
2022-10-10T03:09:54.842Z,2.00
2022-10-10T03:12:22.886Z,2.22
2022-10-10T03:14:51.353Z,2.53
2022-10-10T03:17:19.455Z,2.22
2022-10-10T03:19:48.850Z,2.30
2022-10-10T03:22:17.412Z,1.85
2022-10-10T03:24:45.469Z,1.80
2022-10-10T03:27:13.433Z,2.25
2022-10-10T03:29:41.763Z,2.53
2022-10-10T03:32:11.174Z,2.22
2022-10-10T03:34:39.388Z,2.08
2022-10-10T03:37:08.840Z,2.30
2022-10-10T03:39:37.297Z,1.83
2022-10-10T03:42:06.309Z,2.50
2022-10-10T03:44:34.377Z,2.03
2022-10-10T03:47:02.408Z,1.55
2022-10-10T03:49:30.918Z,2.38
2022-10-10T03:52:00.547Z,2.53
2022-10-10T03:54:30.339Z,2.50
2022-10-10T03:56:58.419Z,2.10
2022-10-10T03:59:26.557Z,2.40
2022-10-10T04:01:54.656Z,2.00
2022-10-10T04:04:23.023Z,2.70
2022-10-10T04:06:50.993Z,2.75
2022-10-10T04:09:19.001Z,3.03
2022-10-10T04:11:48.403Z,2.55
2022-10-10T04:14:16.395Z,2.70
2022-10-10T04:16:44.421Z,2.55
2022-10-10T04:19:12.699Z,2.47
2022-10-10T04:21:40.963Z,2.63
2022-10-10T04:24:08.966Z,2.60
2022-10-10T04:26:37.201Z,2.38
2022-10-10T04:29:06.609Z,2.47
2022-10-10T04:31:34.600Z,3.17
2022-10-10T04:34:02.718Z,2.47
2022-10-10T04:36:30.817Z,2.65
2022-10-10T04:38:59.536Z,2.63
2022-10-10T04:41:27.545Z,2.42
2022-10-10T04:43:55.510Z,2.90
2022-10-10T04:46:25.512Z,2.50
2022-10-10T04:48:53.512Z,1.70
2022-10-10T04:51:21.625Z,1.98
2022-10-10T04:53:50.658Z,1.70
2022-10-10T04:56:18.805Z,2.45
2022-10-10T04:58:46.828Z,2.58
2022-10-10T05:01:14.856Z,3.15
2022-10-10T05:03:44.402Z,2.20
2022-10-10T05:06:12.985Z,2.40
2022-10-10T05:08:41.223Z,2.22
2022-10-10T05:11:09.283Z,2.30
2022-10-10T05:13:37.282Z,2.45
2022-10-10T05:16:05.441Z,2.50
2022-10-10T05:18:36.789Z,2.70
2022-10-10T05:21:07.046Z,2.45
2022-10-10T05:23:35.247Z,2.50
2022-10-10T05:26:03.299Z,2.95
2022-10-10T05:28:31.349Z,3.20
2022-10-10T05:30:59.664Z,2.70
2022-10-10T05:33:27.669Z,2.90
2022-10-10T05:36:03.274Z,4.53
2022-10-10T05:38:32.689Z,4.82
2022-10-10T05:41:00.766Z,5.45
2022-10-10T05:43:28.886Z,8.70
2022-10-10T05:45:56.989Z,4.05
2022-10-10T05:48:25.198Z,5.43
2022-10-10T05:50:55.814Z,8.15
2022-10-10T05:53:24.743Z,4.88
2022-10-10T05:55:54.550Z,3.60
2022-10-10T05:58:22.646Z,3.67
2022-10-10T06:00:50.753Z,3.88
2022-10-10T06:03:19.233Z,3.75
2022-10-10T06:05:49.487Z,3.15
2022-10-10T06:08:17.510Z,3.85
2022-10-10T06:10:47.405Z,3.22
2022-10-10T06:13:23.821Z,3.55
2022-10-10T06:15:52.997Z,3.00
2022-10-10T06:18:21.277Z,3.25
2022-10-10T06:20:49.278Z,3.58
2022-10-10T06:23:18.230Z,3.40
2022-10-10T06:25:46.431Z,3.30
2022-10-10T06:28:16.058Z,3.20
2022-10-10T06:30:45.247Z,3.00
2022-10-10T06:33:15.180Z,3.25
2022-10-10T06:35:44.198Z,3.30
2022-10-10T06:38:12.716Z,3.78
2022-10-10T06:40:41.317Z,3.03
2022-10-10T06:43:12.072Z,3.20
2022-10-10T06:45:43.526Z,3.30
2022-10-10T06:48:12.717Z,2.95
2022-10-10T06:50:40.916Z,2.97
2022-10-10T06:53:09.031Z,3.10
2022-10-10T06:55:37.121Z,2.95
2022-10-10T06:58:05.169Z,2.65
2022-10-10T07:00:33.205Z,3.10
2022-10-10T07:03:02.597Z,2.60
2022-10-10T07:05:30.828Z,2.88
2022-10-10T07:07:59.230Z,2.45
2022-10-10T07:10:27.198Z,2.58
2022-10-10T07:12:55.600Z,1.85
2022-10-10T07:15:23.964Z,2.70
2022-10-10T07:17:58.892Z,2.40
2022-10-10T07:20:28.718Z,2.70
2022-10-10T07:22:57.017Z,1.95
2022-10-10T07:25:25.889Z,2.15
2022-10-10T07:27:54.013Z,2.10
2022-10-10T07:30:22.115Z,1.90
2022-10-10T07:32:50.480Z,2.15
2022-10-10T07:35:18.751Z,2.30
2022-10-10T07:37:48.226Z,2.10
2022-10-10T07:40:16.415Z,1.80
2022-10-10T07:42:44.466Z,2.22
2022-10-10T07:45:13.487Z,1.60
2022-10-10T07:47:41.805Z,2.05
2022-10-10T07:50:11.996Z,1.98
2022-10-10T07:52:40.285Z,1.90
2022-10-10T07:55:10.708Z,2.00
2022-10-10T07:57:39.025Z,1.75
2022-10-10T08:00:09.266Z,1.98
2022-10-10T08:02:37.308Z,1.88
2022-10-10T08:05:05.770Z,1.92
2022-10-10T08:07:33.935Z,2.28
2022-10-10T08:10:02.572Z,1.60
2022-10-10T08:12:31.931Z,1.75
2022-10-10T08:15:00.834Z,2.00
2022-10-10T08:17:29.071Z,1.85
2022-10-10T08:19:57.406Z,1.60
2022-10-10T08:22:27.895Z,1.60
2022-10-10T08:24:55.927Z,1.40
2022-10-10T08:27:24.201Z,1.85
2022-10-10T08:29:53.707Z,1.50
2022-10-10T08:32:21.762Z,1.55
2022-10-10T08:34:49.838Z,1.75
2022-10-10T08:37:17.811Z,1.65
2022-10-10T08:39:45.881Z,1.30
2022-10-10T08:42:18.063Z,1.60
2022-10-10T08:44:49.318Z,1.50
2022-10-10T08:47:22.289Z,1.50
2022-10-10T08:49:53.721Z,1.50
2022-10-10T08:52:30.653Z,1.50
2022-10-10T08:55:01.588Z,1.48
2022-10-10T08:57:33.663Z,1.40
2022-10-10T09:00:06.194Z,1.27
2022-10-10T09:02:55.201Z,1.38
2022-10-10T09:05:42.898Z,1.10
2022-10-10T09:08:34.807Z,1.23
2022-10-10T09:11:08.538Z,2.03
2022-10-10T09:13:40.619Z,1.88
2022-10-10T09:16:22.356Z,1.20
2022-10-10T09:19:02.810Z,1.70
2022-10-10T09:21:34.054Z,1.35
2022-10-10T09:24:07.059Z,1.20
2022-10-10T09:26:39.716Z,1.65
2022-10-10T09:29:19.381Z,1.52
2022-10-10T09:31:51.469Z,1.35
2022-10-10T09:34:28.939Z,1.63
2022-10-10T09:37:00.369Z,1.40
2022-10-10T09:39:36.790Z,1.50
2022-10-10T09:42:06.647Z,1.33
2022-10-10T09:44:34.644Z,1.33
2022-10-10T09:47:02.871Z,1.40
2022-10-10T09:49:32.678Z,1.63
2022-10-10T09:52:08.460Z,1.58
2022-10-10T09:54:36.504Z,1.25
2022-10-10T09:57:04.848Z,1.52
2022-10-10T09:59:41.329Z,1.27
2022-10-10T10:02:18.553Z,1.60
2022-10-10T10:04:48.498Z,2.47
2022-10-10T10:07:22.917Z,1.40
2022-10-10T10:09:52.894Z,1.50
2022-10-10T10:12:24.554Z,1.30
2022-10-10T10:14:59.609Z,1.30
2022-10-10T10:17:27.723Z,1.77
2022-10-10T10:19:57.085Z,1.58
2022-10-10T10:22:35.157Z,1.80
2022-10-10T10:25:31.771Z,1.60
2022-10-10T10:28:22.281Z,1.30
2022-10-10T10:30:53.336Z,1.40
2022-10-10T10:33:34.386Z,1.60
2022-10-10T10:36:14.019Z,1.60
2022-10-10T10:38:45.745Z,1.88
2022-10-10T10:41:24.533Z,2.10
2022-10-10T10:44:25.649Z,1.52
2022-10-10T10:47:05.826Z,1.77
2022-10-10T10:49:43.813Z,1.50
2022-10-10T10:52:31.740Z,1.58
2022-10-10T10:55:20.008Z,1.50
2022-10-10T11:01:28.713Z,1.52
2022-10-10T11:05:20.168Z,1.70
2022-10-10T11:07:20.323Z,1.25
2022-10-10T11:09:56.642Z,1.42
2022-10-10T11:12:46.388Z,1.40
2022-10-10T11:15:19.045Z,1.35
2022-10-10T11:17:53.613Z,1.30
2022-10-10T11:20:27.792Z,1.40
2022-10-10T11:23:07.961Z,1.60
2022-10-10T11:25:45.864Z,1.60
2022-10-10T11:28:18.225Z,1.20
2022-10-10T11:30:49.995Z,1.50
2022-10-10T11:33:22.268Z,1.55
2022-10-10T11:35:57.005Z,1.58
2022-10-10T11:38:30.255Z,1.33
2022-10-10T11:41:04.748Z,1.60
2022-10-10T11:43:41.108Z,1.77
2022-10-10T11:46:22.686Z,1.67
2022-10-10T11:48:58.099Z,1.65
2022-10-10T11:51:36.968Z,1.58
2022-10-10T11:54:13.115Z,1.80
2022-10-10T11:56:46.051Z,1.40
2022-10-10T11:59:21.820Z,1.40
2022-10-10T12:01:53.727Z,1.20
2022-10-10T12:04:22.783Z,1.50
2022-10-10T12:06:55.731Z,1.42
2022-10-10T12:09:27.275Z,1.70
2022-10-10T12:12:00.600Z,1.98
2022-10-10T12:14:31.840Z,1.70
2022-10-10T12:17:00.714Z,1.20
2022-10-10T12:19:30.401Z,1.50
2022-10-10T12:22:01.417Z,1.40
2022-10-10T12:24:32.789Z,1.20
2022-10-10T12:27:30.786Z,1.40
2022-10-10T12:30:28.465Z,1.48
2022-10-10T12:32:56.881Z,1.50
2022-10-10T12:35:41.971Z,1.05
2022-10-10T12:38:19.573Z,1.40
2022-10-10T12:41:15.250Z,1.42
2022-10-10T12:43:52.716Z,1.02
2022-10-10T12:46:30.313Z,1.30
2022-10-10T12:49:03.847Z,1.05
2022-10-10T12:51:36.077Z,1.70
2022-10-10T12:54:06.972Z,1.38
2022-10-10T12:56:39.130Z,1.25
2022-10-10T12:59:19.336Z,1.20
2022-10-10T13:01:52.188Z,1.70
2022-10-10T13:04:21.844Z,1.00
2022-10-10T13:06:53.761Z,1.30
2022-10-10T13:09:24.691Z,1.35
2022-10-10T13:11:54.697Z,1.38
2022-10-10T13:14:24.959Z,1.20
2022-10-10T13:16:53.026Z,1.30
2022-10-10T13:19:23.063Z,1.27
2022-10-10T13:21:53.049Z,1.45
2022-10-10T13:24:25.569Z,1.30
2022-10-10T13:26:57.115Z,1.20
2022-10-10T13:29:30.927Z,1.73
2022-10-10T13:32:01.691Z,1.40
2022-10-10T13:34:32.926Z,1.58
2022-10-10T13:37:03.387Z,1.50
2022-10-10T13:39:35.784Z,1.15
2022-10-10T13:42:05.777Z,1.20
2022-10-10T13:44:49.668Z,1.10
2022-10-10T13:47:45.101Z,1.15
2022-10-10T13:50:21.449Z,1.10
2022-10-10T13:52:49.848Z,1.20
2022-10-10T13:55:26.852Z,1.42
2022-10-10T13:58:00.817Z,1.20
2022-10-10T14:00:33.394Z,1.10
2022-10-10T14:03:01.948Z,1.30
2022-10-10T14:05:32.867Z,1.15
2022-10-10T14:08:01.259Z,1.30
2022-10-10T14:10:33.716Z,2.05
2022-10-10T14:13:02.289Z,1.30
2022-10-10T14:15:44.434Z,1.25
2022-10-10T14:18:16.934Z,1.05
2022-10-10T14:20:45.426Z,1.30
2022-10-10T14:23:14.415Z,1.23
2022-10-10T14:25:44.440Z,1.30
2022-10-10T14:28:17.099Z,1.45
2022-10-10T14:30:47.131Z,1.40
2022-10-10T14:33:18.526Z,1.35
2022-10-10T14:35:47.933Z,1.95
2022-10-10T14:38:16.529Z,1.10
2022-10-10T14:40:46.182Z,1.25
2022-10-10T14:43:14.821Z,1.60
2022-10-10T14:45:42.795Z,1.92
2022-10-10T14:48:13.474Z,1.48
2022-10-10T14:50:44.467Z,1.40
2022-10-10T14:53:13.595Z,1.30
2022-10-10T14:55:43.495Z,1.33
2022-10-10T14:58:16.946Z,1.30
2022-10-10T15:00:45.534Z,1.17
2022-10-10T15:03:15.382Z,1.30
2022-10-10T15:05:43.963Z,1.00
2022-10-10T15:08:14.404Z,1.25
2022-10-10T15:10:42.489Z,1.13
2022-10-10T15:13:11.648Z,1.30
2022-10-10T15:15:39.886Z,1.30
2022-10-10T15:18:26.741Z,1.42
2022-10-10T15:20:58.363Z,1.08
2022-10-10T15:23:27.259Z,1.08
2022-10-10T15:26:00.673Z,1.67
2022-10-10T15:28:28.711Z,1.30
2022-10-10T15:30:56.766Z,1.55
2022-10-10T15:33:24.955Z,1.38
2022-10-10T15:36:09.091Z,1.30
2022-10-10T15:38:38.600Z,1.13
2022-10-10T15:41:08.992Z,1.35
2022-10-10T15:43:44.362Z,1.20
2022-10-10T15:46:12.421Z,1.33
2022-10-10T15:48:40.513Z,1.40
2022-10-10T15:51:10.604Z,1.50
2022-10-10T15:53:38.681Z,1.40
2022-10-10T15:56:10.294Z,1.23
2022-10-10T15:58:39.179Z,1.52
2022-10-10T16:01:11.749Z,1.27
2022-10-10T16:03:39.873Z,1.40
2022-10-10T16:06:10.127Z,1.52
2022-10-10T16:08:39.373Z,1.30
2022-10-10T16:11:08.504Z,1.80
2022-10-10T16:13:37.223Z,1.65
2022-10-10T16:16:07.923Z,1.75
2022-10-10T16:18:40.388Z,1.40
2022-10-10T16:21:12.632Z,1.20
2022-10-10T16:23:40.815Z,1.27
2022-10-10T16:26:12.230Z,1.30
2022-10-10T16:28:40.976Z,1.83
2022-10-10T16:31:11.394Z,1.40
2022-10-10T16:33:40.992Z,1.45
2022-10-10T16:36:12.505Z,1.40
2022-10-10T16:38:41.243Z,1.33
2022-10-10T16:41:28.847Z,1.20
2022-10-10T16:44:00.858Z,1.10
2022-10-10T16:46:29.374Z,1.50
2022-10-10T16:48:59.285Z,1.48
2022-10-10T16:51:30.392Z,1.67
2022-10-10T16:54:02.010Z,1.60
2022-10-10T16:56:31.000Z,1.60
2022-10-10T16:59:01.143Z,1.80
2022-10-10T17:01:30.067Z,2.10
2022-10-10T17:04:00.509Z,1.70
2022-10-10T17:06:35.385Z,1.90
2022-10-10T17:09:05.786Z,2.13
2022-10-10T17:11:34.603Z,1.80
2022-10-10T17:14:02.801Z,1.90
2022-10-10T17:17:06.935Z,1.90
2022-10-10T17:19:19.759Z,1.33
2022-10-10T17:21:49.324Z,1.42
2022-10-10T17:24:17.442Z,1.40
2022-10-10T17:26:45.580Z,1.75
2022-10-10T17:29:14.078Z,1.83
2022-10-10T17:31:42.161Z,1.67
2022-10-10T17:34:10.247Z,1.60
2022-10-10T17:36:38.275Z,1.48
2022-10-10T17:39:08.778Z,1.85
2022-10-10T17:41:36.918Z,1.90
2022-10-10T17:44:05.791Z,1.60
2022-10-10T17:46:36.932Z,1.83
2022-10-10T17:49:06.215Z,1.88
2022-10-10T17:51:34.927Z,1.52
2022-10-10T17:54:04.415Z,1.55
2022-10-10T17:56:34.305Z,1.42
2022-10-10T17:59:02.507Z,1.50
2022-10-10T18:01:31.384Z,1.80
2022-10-10T18:04:00.028Z,1.40
2022-10-10T18:06:29.161Z,1.55
2022-10-10T18:08:57.580Z,1.30
2022-10-10T18:11:28.195Z,1.55
2022-10-10T18:14:00.706Z,1.50
2022-10-10T18:16:32.568Z,1.63
2022-10-10T18:19:00.999Z,1.65
2022-10-10T18:21:29.203Z,1.80
2022-10-10T18:23:57.666Z,1.50
2022-10-10T18:26:29.614Z,1.70
2022-10-10T18:28:59.237Z,1.65
2022-10-10T18:31:28.658Z,1.55
2022-10-10T18:33:57.268Z,1.85
2022-10-10T18:36:27.597Z,1.60
2022-10-10T18:38:55.750Z,2.08
2022-10-10T18:41:28.057Z,1.80
2022-10-10T18:43:58.710Z,1.75
2022-10-10T18:46:26.958Z,1.70
2022-10-10T18:48:55.271Z,1.60
2022-10-10T18:51:25.226Z,1.60
2022-10-10T18:53:56.411Z,1.83
2022-10-10T18:56:25.361Z,2.10
2022-10-10T18:58:56.194Z,2.00
2022-10-10T19:01:27.240Z,1.60
2022-10-10T19:03:56.732Z,1.45
2022-10-10T19:06:26.656Z,1.77
2022-10-10T19:08:56.674Z,1.48
2022-10-10T19:11:27.706Z,1.63
2022-10-10T19:13:56.863Z,1.92
2022-10-10T19:16:26.523Z,2.22
2022-10-10T19:18:58.213Z,1.73
2022-10-10T19:21:27.264Z,1.85
2022-10-10T19:23:55.841Z,2.20
2022-10-10T19:26:23.945Z,1.73
2022-10-10T19:28:52.362Z,1.92
2022-10-10T19:31:22.772Z,2.40
2022-10-10T19:33:53.720Z,2.10
2022-10-10T19:36:21.988Z,2.13
2022-10-10T19:38:50.334Z,2.20
2022-10-10T19:41:19.192Z,2.13
2022-10-10T19:43:50.226Z,2.40
2022-10-10T19:46:21.958Z,2.55
2022-10-10T19:48:50.394Z,2.50
2022-10-10T19:51:20.405Z,2.60
2022-10-10T19:53:48.491Z,2.17
2022-10-10T19:56:20.682Z,2.20
2022-10-10T19:58:49.007Z,2.30
2022-10-10T20:01:19.135Z,3.03
2022-10-10T20:03:48.250Z,2.58
2022-10-10T20:06:17.716Z,2.58
2022-10-10T20:08:47.995Z,2.47
2022-10-10T20:11:17.430Z,2.35
2022-10-10T20:13:45.467Z,2.83
2022-10-10T20:16:14.052Z,2.22
2022-10-10T20:18:43.551Z,3.05
2022-10-10T20:21:17.038Z,2.47
2022-10-10T20:23:47.821Z,2.60
2022-10-10T20:26:18.628Z,2.25
2022-10-10T20:28:48.237Z,2.60
2022-10-10T20:31:18.774Z,2.60
2022-10-10T20:33:47.039Z,2.22
2022-10-10T20:36:15.870Z,2.30
2022-10-10T20:38:44.354Z,2.15
2022-10-10T20:41:13.738Z,1.67
2022-10-10T20:43:42.032Z,2.10
2022-10-10T20:46:11.418Z,1.73
2022-10-10T20:48:39.786Z,1.50
2022-10-10T20:51:10.641Z,1.50
2022-10-10T20:53:39.727Z,1.30
2022-10-10T20:56:10.383Z,1.20
2022-10-10T20:58:41.245Z,1.10
2022-10-10T21:01:11.166Z,1.25
2022-10-10T21:03:40.160Z,1.85
2022-10-10T21:06:10.502Z,1.30
2022-10-10T21:08:39.283Z,1.10
2022-10-10T21:11:09.333Z,1.23
2022-10-10T21:13:40.508Z,0.95
2022-10-10T21:16:10.602Z,1.23
2022-10-10T21:18:39.061Z,1.40
2022-10-10T21:21:08.666Z,1.15
2022-10-10T21:23:38.615Z,1.23
2022-10-10T21:26:07.812Z,1.00
2022-10-10T21:28:36.524Z,1.00
2022-10-10T21:31:07.355Z,1.17
2022-10-10T21:33:36.032Z,0.98
2022-10-10T21:36:04.536Z,1.10
2022-10-10T21:38:32.665Z,1.10
2022-10-10T21:41:06.642Z,1.00
2022-10-10T21:43:35.796Z,1.23
2022-10-10T21:46:07.178Z,1.02
2022-10-10T21:48:36.500Z,0.95
2022-10-10T21:51:05.103Z,1.27
2022-10-10T21:53:33.685Z,1.20
2022-10-10T21:56:06.294Z,1.10
2022-10-10T21:58:35.902Z,1.10
2022-10-10T22:01:10.783Z,1.08
2022-10-10T22:03:39.342Z,1.67
2022-10-10T22:06:10.056Z,1.08
2022-10-10T22:08:39.436Z,1.10
2022-10-10T22:11:10.544Z,1.13
2022-10-10T22:13:38.929Z,1.45
2022-10-10T22:16:09.537Z,1.20
2022-10-10T22:18:38.134Z,1.00
2022-10-10T22:21:07.676Z,1.05
2022-10-10T22:23:35.689Z,1.10
2022-10-10T22:26:07.709Z,1.20
2022-10-10T22:28:36.248Z,1.55
2022-10-10T22:31:05.484Z,1.10
2022-10-10T22:33:34.857Z,1.13
2022-10-10T22:36:05.292Z,1.02
2022-10-10T22:38:33.955Z,1.10
2022-10-10T22:41:02.189Z,1.10
2022-10-10T22:43:30.631Z,1.50
2022-10-10T22:45:58.618Z,1.85
2022-10-10T22:48:27.481Z,1.27
2022-10-10T22:51:05.450Z,1.20
2022-10-10T22:53:33.532Z,1.52
2022-10-10T22:56:02.399Z,1.50
2022-10-10T22:58:31.831Z,1.30
2022-10-10T23:01:04.972Z,1.23
2022-10-10T23:03:33.591Z,1.52
2022-10-10T23:06:03.524Z,1.40
2022-10-10T23:08:32.390Z,1.35
2022-10-10T23:11:00.472Z,1.17
2022-10-10T23:13:29.033Z,1.38
2022-10-10T23:15:57.450Z,1.15
2022-10-10T23:18:25.504Z,1.45
2022-10-10T23:20:53.523Z,1.30
2022-10-10T23:23:23.271Z,1.42
2022-10-10T23:25:51.583Z,1.30
2022-10-10T23:28:20.009Z,1.85
2022-10-10T23:30:49.640Z,1.17
2022-10-10T23:33:18.591Z,1.35
2022-10-10T23:35:56.703Z,1.33
2022-10-10T23:38:26.173Z,1.45
2022-10-10T23:40:54.296Z,1.42
2022-10-10T23:43:22.731Z,1.65
2022-10-10T23:45:51.239Z,1.85
2022-10-10T23:48:19.948Z,1.40
2022-10-10T23:50:48.057Z,1.10
2022-10-10T23:53:16.069Z,1.13
2022-10-10T23:55:45.579Z,1.10
2022-10-10T23:58:14.095Z,1.15
